LGIR

Heraklion International Nikos Kazantzakis Airport

Heraklion, Greece
TAF LGIR 181100Z 1812/1912 33010KT 9999 FEW018 SCT020 PROB40 TEMPO 1812/1818 3000 TSRA SCT010 FEW018CB BKN020 BECMG 1820/1822 VRB05KT
Issued Valid From Valid To
Jun-18 @ 11:00 UTC
(2 hours ago)
Jun-18 @ 12:00 UTC
(an hour ago)
Jun-19 @ 12:00 UTC
(in 23 hours)
Jun-18 @ 12:00 to Jun-18 @ 20:00
TAF LGIR 181100Z 1812/1912 33010KT 9999 FEW018 SCT020
Wind Visibility Clouds
330° at 10 knots 10,000+ meters
  • Few at 1,800' AGL
  • Scattered at 2,000' AGL
Temporary  (Probability 40%) Jun-18 @ 12:00 to Jun-18 @ 18:00
PROB40 TEMPO 1812/1818 3000 TSRA SCT010 FEW018CB BKN020
Visibility Clouds Conditions
2,993 meters
  • Scattered at 1,000' AGL
  • Few at 1,800' AGL
  • Broken at 2,000' AGL
  • Thunderstorm
  • Rain
Becoming Jun-18 @ 20:00 to Jun-19 @ 12:00
BECMG 1820/1822 VRB05KT
Wind Visibility Clouds
Variable at 5 knots 10,000+ meters
  • Few at 1,800' AGL
  • Scattered at 2,000' AGL
TAF LGIR 181100Z 1812/1912 33010KT 9999 FEW018 SCT020 PROB40 TEMPO 1812/1818 3000 TSRA SCT010 FEW018CB BKN020 BECMG 1820/1822 VRB05KT
Issued Jun-18 @ 11:00 UTC
(2 hours ago)
Valid From Jun-18 @ 12:00 UTC
(an hour ago)
Valid To Jun-19 @ 12:00 UTC
(in 23 hours)
Jun-18 @ 12:00 - Jun-18 @ 20:00
Wind Visibility
330° at 10 knots 10,000+ meters
Clouds
  • Few at 1,800' AGL
  • Scattered at 2,000' AGL
Probability 40% Temporary Jun-18 @ 12:00 - Jun-18 @ 18:00
Clouds
  • Scattered at 1,000' AGL
  • Few at 1,800' AGL
  • Broken at 2,000' AGL
Conditions
  • Thunderstorm
  • Rain
Becoming Jun-18 @ 20:00 - Jun-19 @ 12:00
Wind Visibility
Variable at 5 knots 10,000+ meters
Clouds
  • Few at 1,800' AGL
  • Scattered at 2,000' AGL